Terminal Aerodrome Forecast
Issued by NWS

Home | Current Version | Previous Version | Text Only | Print | Product List | Glossary On
Versions: 1 2 3 4 5 6 7 8 9 10 11 12 13 14 15 16 17 18 19 20 21 22 23 24 25 26 27
000
FTUS43 KDDC 012320
TAFGCK
TAF
KGCK 012320Z 0200/0224 15015G21KT P6SM SKC
     FM020700 14012KT P6SM VCTS BKN020CB
     FM020900 14012KT 3SM BR BKN007
     FM021500 17016G24KT P6SM SCT020
     FM021900 18021G30KT P6SM SCT040=

USA.gov is the U.S. government's official web portal to all federal, state and local government web resources and services.